createdAt,value
2022-10-22T00:00:14.189Z,1.95
2022-10-22T00:06:17.595Z,2.00
2022-10-22T00:12:22.366Z,1.95
2022-10-22T00:18:25.822Z,1.40
2022-10-22T00:24:29.254Z,1.63
2022-10-22T00:30:34.218Z,2.10
2022-10-22T00:36:37.602Z,2.03
2022-10-22T00:42:41.367Z,1.73
2022-10-22T00:48:46.350Z,2.13
2022-10-22T00:54:49.938Z,2.40
2022-10-22T01:00:53.605Z,2.42
2022-10-22T01:06:58.354Z,2.40
2022-10-22T01:13:08.250Z,2.20
2022-10-22T01:19:24.193Z,2.63
2022-10-22T01:25:33.460Z,2.63
2022-10-22T01:31:40.549Z,2.10
2022-10-22T01:37:46.521Z,1.40
2022-10-22T01:43:49.860Z,1.90
2022-10-22T01:50:02.387Z,2.22
2022-10-22T01:56:14.196Z,1.60
2022-10-22T02:02:22.292Z,2.03
2022-10-22T02:08:29.857Z,1.67
2022-10-22T02:14:33.855Z,1.20
2022-10-22T02:20:38.211Z,1.42
2022-10-22T02:26:44.816Z,1.92
2022-10-22T02:32:52.024Z,2.25
2022-10-22T02:38:55.773Z,2.35
2022-10-22T02:45:00.518Z,2.03
2022-10-22T02:51:03.877Z,2.25
2022-10-22T02:57:07.356Z,2.10
2022-10-22T03:03:12.208Z,1.50
2022-10-22T03:09:15.567Z,1.42
2022-10-22T03:15:19.247Z,1.42
2022-10-22T03:21:28.096Z,1.50
2022-10-22T03:27:31.703Z,1.20
2022-10-22T03:33:35.164Z,1.25
2022-10-22T03:39:42.475Z,1.20
2022-10-22T03:45:45.843Z,1.50
2022-10-22T03:51:49.412Z,1.45
2022-10-22T03:57:54.184Z,1.58
2022-10-22T04:03:57.840Z,0.90
2022-10-22T04:10:01.345Z,1.58
2022-10-22T04:16:12.726Z,1.00
2022-10-22T04:22:16.090Z,1.10
2022-10-22T04:28:19.488Z,1.80
2022-10-22T04:34:24.231Z,1.23
2022-10-22T04:40:27.641Z,1.23
2022-10-22T04:46:31.802Z,1.30
2022-10-22T04:52:36.598Z,1.20
2022-10-22T04:58:40.952Z,1.00
2022-10-22T05:04:45.610Z,1.40
2022-10-22T05:10:50.332Z,1.38
2022-10-22T05:16:56.593Z,1.10
2022-10-22T05:22:59.948Z,1.15
2022-10-22T05:29:04.744Z,1.70
2022-10-22T05:35:08.760Z,1.50
2022-10-22T05:41:13.687Z,0.93
2022-10-22T05:47:18.407Z,1.40
2022-10-22T05:53:21.771Z,1.00
2022-10-22T05:59:25.222Z,1.75
2022-10-22T06:05:30.033Z,1.70
2022-10-22T06:11:35.162Z,1.70
2022-10-22T06:17:38.918Z,1.20
2022-10-22T06:23:44.117Z,2.05
2022-10-22T06:29:49.080Z,2.03
2022-10-22T06:35:52.502Z,2.00
2022-10-22T06:41:57.265Z,1.60
2022-10-22T06:48:00.636Z,2.17
2022-10-22T06:54:04.075Z,1.92
2022-10-22T07:00:09.785Z,1.77
2022-10-22T07:06:13.937Z,2.22
2022-10-22T07:12:17.323Z,1.88
2022-10-22T07:18:22.055Z,1.77
2022-10-22T07:24:25.554Z,1.40
2022-10-22T07:30:28.925Z,1.70
2022-10-22T07:36:34.200Z,1.60
2022-10-22T07:42:37.562Z,1.60
2022-10-22T07:48:41.211Z,1.27
2022-10-22T07:54:46.000Z,1.55
2022-10-22T08:00:49.848Z,1.70
2022-10-22T08:06:53.250Z,2.08
2022-10-22T08:12:58.382Z,1.15
2022-10-22T08:19:01.876Z,1.40
2022-10-22T08:25:05.484Z,1.10
2022-10-22T08:31:10.362Z,1.10
2022-10-22T08:37:14.484Z,1.60
2022-10-22T08:43:34.489Z,1.90
2022-10-22T08:49:42.130Z,1.70
2022-10-22T08:55:46.623Z,2.10
2022-10-22T09:01:51.068Z,1.65
2022-10-22T09:07:56.813Z,1.38
2022-10-22T09:14:01.799Z,1.23
2022-10-22T09:20:11.134Z,1.73
2022-10-22T09:26:18.213Z,1.48
2022-10-22T09:32:21.887Z,1.60
2022-10-22T09:38:27.324Z,1.65
2022-10-22T09:44:34.691Z,1.38
2022-10-22T09:50:41.303Z,1.73
2022-10-22T09:56:48.787Z,2.25
2022-10-22T10:02:55.418Z,1.42
2022-10-22T10:09:05.848Z,1.60
2022-10-22T10:15:15.734Z,1.33
2022-10-22T10:21:30.772Z,1.85
2022-10-22T10:27:37.039Z,1.65
2022-10-22T10:33:46.738Z,1.95
2022-10-22T10:40:05.705Z,1.52
2022-10-22T10:46:13.061Z,2.03
2022-10-22T10:52:22.350Z,1.42
2022-10-22T10:58:33.699Z,1.45
2022-10-22T11:04:51.964Z,1.60
2022-10-22T11:10:56.839Z,1.60
2022-10-22T11:17:06.284Z,1.63
2022-10-22T11:23:20.149Z,1.52
2022-10-22T11:29:28.309Z,1.42
2022-10-22T11:35:36.819Z,1.65
2022-10-22T11:41:40.508Z,1.92
2022-10-22T11:47:54.310Z,1.40
2022-10-22T11:54:00.035Z,1.83
2022-10-22T12:00:03.430Z,1.40
2022-10-22T12:06:19.872Z,1.60
2022-10-22T12:12:29.147Z,1.88
2022-10-22T12:18:36.571Z,1.67
2022-10-22T12:24:41.259Z,1.33
2022-10-22T12:30:46.097Z,1.90
2022-10-22T12:36:50.523Z,1.23
2022-10-22T12:42:55.517Z,1.30
2022-10-22T12:49:02.410Z,1.75
2022-10-22T12:55:08.590Z,1.60
2022-10-22T13:01:13.909Z,2.22
2022-10-22T13:07:22.226Z,1.67
2022-10-22T13:13:32.982Z,1.98
2022-10-22T13:20:05.286Z,1.50
2022-10-22T13:26:15.307Z,1.60
2022-10-22T13:32:28.078Z,1.60
2022-10-22T13:38:31.585Z,1.30
2022-10-22T13:44:36.672Z,1.10
2022-10-22T13:50:40.441Z,0.90
2022-10-22T13:56:43.898Z,1.90
2022-10-22T14:02:49.899Z,1.10
2022-10-22T14:08:56.573Z,0.82
2022-10-22T14:15:00.045Z,1.15
2022-10-22T14:21:07.465Z,0.90
2022-10-22T14:27:12.205Z,1.10
2022-10-22T14:33:16.797Z,1.10
2022-10-22T14:39:22.034Z,1.08
2022-10-22T14:45:26.290Z,1.50
2022-10-22T14:51:30.516Z,1.20
2022-10-22T14:57:35.495Z,1.10
2022-10-22T15:03:39.151Z,0.75
2022-10-22T15:09:42.535Z,0.85
2022-10-22T15:15:47.292Z,1.33
2022-10-22T15:21:50.834Z,0.90
2022-10-22T15:28:01.839Z,0.82
2022-10-22T15:34:12.454Z,1.30
2022-10-22T15:40:15.923Z,0.90
2022-10-22T15:46:20.456Z,1.30
2022-10-22T15:52:25.996Z,1.48
2022-10-22T15:58:29.372Z,1.48
2022-10-22T16:04:32.717Z,1.05
2022-10-22T16:10:37.425Z,2.20
2022-10-22T16:16:44.166Z,1.90
2022-10-22T16:22:50.875Z,3.45
2022-10-22T16:28:55.609Z,1.50
2022-10-22T16:34:59.078Z,2.10
2022-10-22T16:41:09.195Z,1.98
2022-10-22T16:47:13.944Z,1.92
2022-10-22T16:53:17.549Z,3.72
2022-10-22T16:59:22.996Z,3.03
2022-10-22T17:05:27.985Z,2.58
2022-10-22T17:11:36.245Z,3.22
2022-10-22T17:17:54.122Z,3.88
2022-10-22T17:23:59.018Z,3.65
2022-10-22T17:30:08.485Z,3.40
2022-10-22T17:36:13.706Z,3.20
2022-10-22T17:42:19.140Z,3.00
2022-10-22T17:48:27.403Z,4.35
2022-10-22T17:54:34.021Z,4.38
2022-10-22T18:00:39.197Z,4.78
2022-10-22T18:06:42.878Z,5.22
2022-10-22T18:12:46.241Z,5.68
2022-10-22T18:18:53.084Z,5.05
2022-10-22T18:25:00.812Z,7.45
2022-10-22T18:31:06.890Z,7.53
2022-10-22T18:37:12.930Z,8.82
2022-10-22T18:43:16.780Z,9.43
2022-10-22T18:49:22.217Z,8.52
2022-10-22T18:55:32.608Z,8.93
2022-10-22T19:01:36.016Z,7.68
2022-10-22T19:07:43.964Z,16.17
2022-10-22T19:13:51.449Z,13.05
2022-10-22T19:19:55.141Z,7.60
2022-10-22T19:26:02.754Z,6.97
2022-10-22T19:38:16.028Z,7.70
2022-10-22T19:44:20.000Z,8.75
2022-10-22T19:50:24.772Z,8.52
2022-10-22T19:56:28.269Z,8.80
2022-10-22T20:02:31.788Z,9.02
2022-10-22T20:08:38.090Z,8.90
2022-10-22T20:14:45.780Z,8.68
2022-10-22T20:20:49.188Z,8.32
2022-10-22T20:26:54.089Z,8.45
2022-10-22T20:32:57.577Z,8.52
2022-10-22T20:39:06.834Z,9.35
2022-10-22T20:45:14.752Z,10.10
2022-10-22T20:51:18.338Z,9.75
2022-10-22T20:57:24.984Z,9.55
2022-10-22T21:03:29.823Z,9.65
2022-10-22T21:09:35.714Z,9.10
2022-10-22T21:15:39.095Z,8.77
2022-10-22T21:21:46.510Z,9.38
2022-10-22T21:27:49.942Z,9.57
2022-10-22T21:33:54.272Z,9.43
2022-10-22T21:40:01.394Z,9.40
2022-10-22T21:46:07.956Z,9.10
2022-10-22T21:52:11.921Z,7.28
2022-10-22T21:58:16.688Z,7.40
2022-10-22T22:04:20.260Z,7.72
2022-10-22T22:10:25.213Z,7.72
2022-10-22T22:16:30.987Z,6.93
2022-10-22T22:22:34.365Z,5.70
2022-10-22T22:28:38.027Z,5.88
2022-10-22T22:34:42.842Z,6.10
2022-10-22T22:40:46.312Z,5.47
2022-10-22T22:46:49.874Z,4.93
2022-10-22T22:52:54.669Z,5.30
2022-10-22T22:58:58.515Z,4.88
2022-10-22T23:05:01.922Z,5.53
2022-10-22T23:11:08.894Z,5.20
2022-10-22T23:17:13.140Z,5.00
2022-10-22T23:23:27.950Z,4.82
2022-10-22T23:29:40.634Z,4.68
2022-10-22T23:35:49.004Z,4.63
2022-10-22T23:41:53.355Z,4.50
2022-10-22T23:47:58.943Z,5.22
2022-10-22T23:54:04.331Z,4.40
